Latest Weather Observations for Sydney Olympic Park

IDN60901

Issued at 6:41 pm EDT Tuesday 20 November 2018 (issued every 10 minutes, with the page automatically refreshed every 10 minutes)

About weather observations | Map of Sydney area stations | Latest observations for Sydney area | Other Formats
Station Details ID: 066212 Name: SYDNEY OLYMPIC PARK AWS (ARCHERY CENTRE) Lat: -33.83 Lon: 151.07 Height: 4.0 m
Data from the previous 72 hours. | See also: Recent months at Sydney Olympic Park
Date/Time
EDT
Temp
°C
App
Temp
°C
Dew
Point
°C
Rel
Hum
%
Delta-T
°C
Wind Press
QNH
hPa
Press
MSL
hPa
Rain since
9am
mm
Dir  Spd
km/h
Gust
km/h
Spd
kts
Gust
kts
20/06:30pm 22.9 21.8 15.2 62 4.6 NE 15 30 8 16 - - 0.0
20/06:00pm 23.2 22.1 15.3 61 4.7 ENE 15 32 8 17 - - 0.0
20/05:30pm 24.3 23.5 15.0 56 5.6 ENE 13 22 7 12 - - 0.0
20/05:00pm 24.6 22.9 13.5 50 6.5 NE 15 26 8 14 - - 0.0
20/04:30pm 25.4 24.3 14.2 50 6.6 E 13 24 7 13 - - 0.0
20/04:00pm 25.6 23.9 14.7 51 6.5 ENE 17 32 9 17 - - 0.0
20/03:30pm 25.0 22.6 13.9 50 6.5 ENE 19 30 10 16 - - 0.0
20/03:00pm 25.7 23.3 13.9 48 7.0 ENE 19 28 10 15 - - 0.0
20/02:30pm 26.0 23.9 13.5 46 7.3 ENE 17 26 9 14 - - 0.0
20/02:00pm 25.4 22.1 13.9 49 6.8 E 24 35 13 19 - - 0.0
20/01:30pm 25.9 23.6 14.1 48 7.0 E 19 26 10 14 - - 0.0
20/01:00pm 25.9 23.8 14.7 50 6.7 ESE 19 30 10 16 - - 0.0
20/12:30pm 26.0 25.3 15.4 52 6.4 E 13 22 7 12 - - 0.0
20/12:00pm 25.1 23.6 14.3 51 6.4 ESE 15 20 8 11 - - 0.0
20/11:30am 25.0 24.2 13.9 50 6.5 ENE 11 19 6 10 - - 0.0
20/11:00am 23.6 23.1 13.8 54 5.7 E 9 17 5 9 - - 0.0
20/10:30am 21.9 22.9 14.3 62 4.4 N 2 9 1 5 - - 0.0
20/10:00am 20.4 21.7 15.2 72 3.1 NW 2 7 1 4 - - 0.0
20/09:30am 19.7 19.8 14.5 72 3.0 WNW 7 11 4 6 - - 0.0
20/09:00am 20.1 19.8 14.5 70 3.3 NW 9 11 5 6 - - 0.0
20/08:30am 20.5 21.5 13.2 63 4.2 CALM 0 7 0 4 - - 0.0
20/08:00am 19.4 19.6 14.2 72 3.0 NNW 6 11 3 6 - - 0.0
20/07:30am 18.2 19.8 14.9 81 1.9 CALM 0 0 0 0 - - 0.0
20/07:00am 16.0 17.9 15.8 99 0.1 CALM 0 6 0 3 - - 0.0
20/06:30am 14.6 15.7 14.6 100 0.0 N 2 6 1 3 - - 0.0
20/06:00am 13.8 15.0 13.8 100 0.0 CALM 0 0 0 0 - - 0.0
20/05:30am 13.5 14.5 13.3 99 0.1 CALM 0 0 0 0 - - 0.0
20/05:00am 13.5 14.5 13.3 99 0.1 CALM 0 0 0 0 - - 0.0
20/04:30am 13.8 14.9 13.6 99 0.1 CALM 0 0 0 0 - - 0.0
20/04:00am 13.7 14.8 13.5 99 0.1 CALM 0 0 0 0 - - 0.0
20/03:30am 14.0 15.2 13.8 99 0.1 CALM 0 0 0 0 - - 0.0
20/03:00am 14.0 15.2 13.8 99 0.1 CALM 0 0 0 0 - - 0.0
20/02:30am 14.4 15.7 14.2 99 0.1 CALM 0 0 0 0 - - 0.0
20/02:00am 14.5 15.9 14.3 99 0.1 CALM 0 0 0 0 - - 0.0
20/01:30am 14.7 16.1 14.5 99 0.1 CALM 0 0 0 0 - - 0.0
20/01:00am 14.7 15.9 13.9 95 0.4 CALM 0 0 0 0 - - 0.0
20/12:30am 15.1 16.4 14.1 94 0.6 CALM 0 0 0 0 - - 0.0
20/12:00am 15.6 17.0 14.5 93 0.6 CALM 0 0 0 0 - - 0.0
 
Date/Time
EDT
Temp
°C
App
Temp
°C
Dew
Point
°C
Rel
Hum
%
Delta-T
°C
Wind Press
QNH
hPa
Press
MSL
hPa
Rain since
9am
mm
Dir  Spd
km/h
Gust
km/h
Spd
kts
Gust
kts
19/11:30pm 16.0 17.3 14.2 89 1.0 CALM 0 0 0 0 - - 0.0
19/11:00pm 16.5 17.8 14.2 86 1.3 CALM 0 0 0 0 - - 0.0
19/10:30pm 17.1 18.2 13.6 80 2.0 CALM 0 0 0 0 - - 0.0
19/10:00pm 18.1 18.8 13.4 74 2.7 ESE 2 7 1 4 - - 0.0
19/09:30pm 18.5 18.5 13.6 73 2.8 E 6 11 3 6 - - 0.0
19/09:00pm 18.9 18.9 13.5 71 3.1 E 6 13 3 7 - - 0.0
19/08:30pm 19.2 19.1 13.4 69 3.3 E 6 11 3 6 - - 0.0
19/08:00pm 19.4 19.0 13.1 67 3.6 E 7 13 4 7 - - 0.0
19/07:30pm 19.8 19.0 13.0 65 3.8 ENE 9 26 5 14 - - 0.0
19/07:00pm 20.5 19.8 13.2 63 4.2 ENE 9 19 5 10 - - 0.0
19/06:30pm 21.1 19.7 13.3 61 4.5 ENE 13 22 7 12 - - 0.0
19/06:00pm 21.0 18.6 12.7 59 4.7 E 17 28 9 15 - - 0.0
19/05:30pm 21.6 19.3 13.0 58 4.9 E 17 30 9 16 - - 0.0
19/05:00pm 21.6 18.9 13.0 58 4.9 E 19 30 10 16 - - 0.0
19/04:30pm 22.5 19.9 13.3 56 5.3 E 19 32 10 17 - - 0.0
19/04:00pm 22.0 20.3 12.5 54 5.4 ENE 13 20 7 11 - - 0.0
19/03:30pm 21.7 19.6 12.3 55 5.3 E 15 28 8 15 - - 0.0
19/03:00pm 22.2 19.4 13.3 57 5.1 E 20 30 11 16 - - 0.0
19/02:30pm 23.6 21.4 14.9 58 5.2 E 20 32 11 17 - - 0.0
19/02:00pm 22.1 19.3 12.6 55 5.4 E 19 26 10 14 - - 0.0
19/01:30pm 22.5 20.3 13.3 56 5.3 E 17 28 9 15 - - 0.0
19/01:00pm 21.7 19.8 13.1 58 4.9 E 15 22 8 12 - - 0.0
19/12:30pm 21.7 19.3 12.8 57 5.1 E 17 24 9 13 - - 0.0
19/12:00pm 22.1 20.9 12.9 56 5.3 E 11 17 6 9 - - 0.0
19/11:30am 21.7 20.2 13.1 58 4.9 ESE 13 24 7 13 - - 0.0
19/11:00am 20.9 20.2 12.1 57 4.9 E 7 17 4 9 - - 0.0
19/10:30am 21.1 20.6 12.0 56 5.1 SE 6 13 3 7 - - 0.0
19/10:00am 21.1 21.1 12.5 58 4.9 NE 4 9 2 5 - - 0.0
19/09:30am 19.8 20.5 12.3 62 4.2 CALM 0 0 0 0 - - 0.0
19/09:00am 18.3 18.4 13.8 75 2.6 NNW 6 9 3 5 - - 0.0
19/08:30am 16.6 16.5 13.3 81 1.8 NNW 6 9 3 5 - - 0.0
19/08:00am 16.1 17.4 14.1 88 1.1 CALM 0 0 0 0 - - 0.0
19/07:30am 14.8 15.1 13.5 92 0.7 NNW 4 7 2 4 - - 0.0
19/07:00am 14.0 13.8 13.7 98 0.2 NW 7 9 4 5 - - 0.0
19/06:30am 12.6 13.4 12.4 99 0.1 CALM 0 0 0 0 - - 0.0
19/06:00am 11.5 11.9 11.3 99 0.1 CALM 0 2 0 1 - - 0.0
19/05:30am 11.3 11.7 11.1 99 0.1 CALM 0 0 0 0 - - 0.0
19/05:11am 11.3 11.7 11.1 99 0.1 CALM 0 0 0 0 - - 0.0
19/05:00am 11.4 11.8 11.2 99 0.1 CALM 0 0 0 0 - - 0.0
19/04:53am 11.3 11.7 11.1 99 0.1 CALM 0 0 0 0 - - 0.0
19/04:30am 11.7 12.2 11.5 99 0.1 CALM 0 0 0 0 - - 0.0
19/04:00am 11.7 12.2 11.5 99 0.1 CALM 0 0 0 0 - - 0.0
19/03:30am 11.4 11.8 11.2 99 0.1 CALM 0 0 0 0 - - 0.0
19/03:00am 12.0 12.6 11.8 99 0.1 CALM 0 0 0 0 - - 0.0
19/02:30am 12.3 13.0 12.1 99 0.1 CALM 0 0 0 0 - - 0.0
19/02:00am 12.3 12.9 12.0 98 0.2 CALM 0 0 0 0 - - 0.0
19/01:30am 12.6 13.2 12.0 96 0.3 CALM 0 0 0 0 - - 0.0
19/01:00am 12.8 13.3 11.7 93 0.6 CALM 0 0 0 0 - - 0.0
19/12:30am 13.2 13.8 11.9 92 0.7 CALM 0 0 0 0 - - 0.0
19/12:00am 13.3 13.7 11.2 87 1.1 CALM 0 0 0 0 - - 0.0
 
Date/Time
EDT
Temp
°C
App
Temp
°C
Dew
Point
°C
Rel
Hum
%
Delta-T
°C
Wind Press
QNH
hPa
Press
MSL
hPa
Rain since
9am
mm
Dir  Spd
km/h
Gust
km/h
Spd
kts
Gust
kts
18/11:30pm 14.0 14.6 11.9 87 1.1 CALM 0 0 0 0 - - 0.0
18/11:00pm 14.4 14.8 11.4 82 1.6 CALM 0 0 0 0 - - 0.0
18/10:30pm 15.0 15.3 11.0 77 2.1 CALM 0 0 0 0 - - 0.0
18/10:00pm 15.7 14.8 10.7 72 2.7 SE 6 11 3 6 - - 0.0
18/09:30pm 18.3 16.9 10.9 62 4.0 E 9 13 5 7 - - 0.0
18/09:00pm 18.5 16.7 10.8 61 4.2 E 11 15 6 8 - - 0.0
18/08:30pm 18.6 16.8 10.9 61 4.2 E 11 17 6 9 - - 0.0
18/08:00pm 18.8 16.6 10.9 60 4.3 E 13 19 7 10 - - 0.0
18/07:30pm 19.0 16.4 10.8 59 4.4 E 15 24 8 13 - - 0.0
18/07:00pm 19.2 16.7 11.0 59 4.5 E 15 24 8 13 - - 0.0
18/06:30pm 19.8 16.8 10.8 56 4.9 E 17 26 9 14 - - 0.0
18/06:00pm 19.8 17.0 11.3 58 4.7 E 17 28 9 15 - - 0.0
18/05:30pm 20.0 16.8 11.2 57 4.8 E 19 28 10 15 - - 0.0
18/05:00pm 19.8 17.3 11.0 57 4.8 E 15 26 8 14 - - 0.0
18/04:30pm 20.7 17.5 11.3 55 5.2 E 19 32 10 17 - - 0.0
18/04:00pm 20.5 17.7 11.4 56 5.0 ESE 17 24 9 13 - - 0.0
18/03:30pm 20.7 17.5 11.3 55 5.2 ESE 19 26 10 14 - - 0.0
18/03:00pm 20.7 17.1 10.5 52 5.5 E 20 30 11 16 - - 0.0
18/02:30pm 22.3 18.9 10.5 47 6.5 E 19 32 10 17 - - 0.0
18/02:00pm 22.1 18.9 11.2 50 6.0 SE 19 28 10 15 - - 0.0
18/01:30pm 22.0 19.4 12.0 53 5.6 ESE 17 26 9 14 - - 0.0
18/01:00pm 20.6 17.6 10.7 53 5.4 ESE 17 24 9 13 - - 0.0
18/12:30pm 22.2 19.8 12.7 55 5.4 SE 17 28 9 15 - - 0.0
18/12:00pm 20.4 17.0 11.3 56 5.0 ESE 20 28 11 15 - - 0.0
18/11:30am 21.1 18.6 11.2 53 5.5 SE 15 20 8 11 - - 0.0
18/11:00am 20.1 17.4 10.2 53 5.3 SSE 15 20 8 11 - - 0.0
18/10:30am 20.2 18.0 10.9 55 5.1 SE 13 20 7 11 - - 0.0
18/10:00am 21.1 18.4 10.3 50 5.9 SSE 15 22 8 12 - - 0.0
18/09:30am 20.1 17.1 10.8 55 5.1 SSE 17 26 9 14 - - 0.0
18/09:00am 19.3 17.3 11.6 61 4.2 SSE 13 20 7 11 - - 0.2
18/08:30am 18.8 16.3 11.1 61 4.2 SSE 15 24 8 13 - - 0.2
18/08:00am 18.4 15.9 11.0 62 4.0 SSE 15 22 8 12 - - 0.2
18/07:30am 18.5 17.0 11.8 65 3.7 SSE 11 17 6 9 - - 0.2
18/07:00am 16.8 18.0 13.7 82 1.8 CALM 0 0 0 0 - - 0.2
18/06:30am 16.7 17.3 12.0 74 2.6 CALM 0 0 0 0 - - 0.2
18/06:00am 16.7 16.1 11.8 73 2.7 S 6 9 3 5 - - 0.2
18/05:30am 17.0 16.3 12.1 73 2.7 SSE 7 13 4 7 - - 0.2
18/05:00am 16.9 16.1 12.8 77 2.3 SSE 9 13 5 7 - - 0.2
18/04:30am 16.2 17.4 13.9 86 1.3 CALM 0 2 0 1 - - 0.2
18/04:04am 16.5 15.2 13.6 83 1.6 SSE 13 24 7 13 - - 0.2
18/04:00am 16.6 14.9 13.5 82 1.7 SSE 15 24 8 13 - - 0.2
18/03:49am 17.0 14.8 13.3 79 2.1 SE 17 26 9 14 - - 0.2
18/03:30am 17.2 16.2 13.5 79 2.1 SE 11 22 6 12 - - 0.2
18/03:00am 15.8 17.2 14.5 92 0.7 CALM 0 0 0 0 - - 0.2
18/02:30am 16.1 17.4 14.1 88 1.1 CALM 0 2 0 1 - - 0.2
18/02:00am 16.0 17.4 14.4 90 0.9 CALM 0 0 0 0 - - 0.2
18/01:30am 16.2 17.0 14.9 92 0.7 W 4 7 2 4 - - 0.2
18/01:00am 16.6 17.3 14.6 88 1.1 SSE 4 6 2 3 - - 0.2
18/12:30am 17.3 17.0 13.4 78 2.2 SSE 7 11 4 6 - - 0.0
18/12:00am 17.2 16.4 12.9 76 2.4 SSE 9 13 5 7 - - 0.0
 
Date/Time
EDT
Temp
°C
App
Temp
°C
Dew
Point
°C
Rel
Hum
%
Delta-T
°C
Wind Press
QNH
hPa
Press
MSL
hPa
Rain since
9am
mm
Dir  Spd
km/h
Gust
km/h
Spd
kts
Gust
kts
17/11:30pm 17.4 16.6 12.9 75 2.5 SSE 9 15 5 8 - - 0.0
17/11:00pm 17.5 16.7 12.8 74 2.6 SSE 9 13 5 7 - - 0.0
17/10:30pm 17.9 17.1 13.0 73 2.7 SSE 9 15 5 8 - - 0.0
17/10:00pm 17.8 17.1 13.1 74 2.6 SSE 9 15 5 8 - - 0.0
17/09:30pm 17.9 17.3 13.4 75 2.5 SSE 9 13 5 7 - - 0.0
17/09:00pm 18.1 16.7 13.4 74 2.7 SE 13 20 7 11 - - 0.0
17/08:30pm 17.9 16.8 13.2 74 2.6 SSE 11 17 6 9 - - 0.0
17/08:00pm 18.2 17.0 12.9 71 3.0 SSE 11 19 6 10 - - 0.0
17/07:30pm 18.7 16.2 12.2 66 3.6 SSE 17 22 9 12 - - 0.0
17/07:00pm 18.5 17.4 14.4 77 2.4 SE 13 20 7 11 - - 0.0

Latest Capital City Observations: Canberra | Sydney | Melbourne | Brisbane | Adelaide | Perth | Hobart | Darwin

Other Formats:

Comma delimited format used in spreadsheet applications
http://www.bom.gov.au/fwo/IDN60901/IDN60901.95765.axf

JavaScript Object Notation format (JSON) in row-major order
http://www.bom.gov.au/fwo/IDN60901/IDN60901.95765.json